EGGD/BRS METAR and TAF weather

Enter ICAO airport designator
Station Type Date Time Source
EGGD METAR 2022/01/18 06:20 UTC NOAA

EGGD 180620Z AUTO 17006KT 9999 NCD 04/02 Q1036


Station Type Date Time Source
EGGD Decoded METAR 2022/01/18 06:20 UTC NOAA

Bristol / Lulsgate , United Kingdom (EGGD) 51-23N 002-43W
Jan 18, 2022 - 01:20 AM EST / 2022.01.18 0620 UTC
Wind: from the S (170 degrees) at 7 MPH (6 KT):0
Visibility: greater than 7 mile(s):0
Temperature: 39 F (4 C)
Dew Point: 35 F (2 C)
Relative Humidity: 86%
Pressure (altimeter): 30.59 in. Hg (1036 hPa)
ob: EGGD 180620Z AUTO 17006KT 9999 NCD 04/02 Q1036
cycle: 6

Station Type Date Time Source
EGGD TAF 2022/01/18 06:06 UTC NOAA

TAF EGGD 180457Z 1806/1906 10004KT CAVOK
BECMG 1806/1809 BKN008
TEMPO 1806/1810 8000
BECMG 1809/1812 BKN016
BECMG 1821/1824 21010KT

Example: see airport list